Antelope, CA

9:50 PM PDT on September 14, 2014 (GMT -0700)
Firestone, Antelope, CA | Change Station
CLOSE
Current Station
Personal Weather Station
Location: Antelope, CA
Elevation: 155 ft
Nearby Weather Stations

Elev 155 ft 38.71 °N, 121.34 °W | Updated 41 seconds ago

Clear
Clear
81.4 °F
Feels Like 81 °F
N
0.0
Wind Variable Wind from SE
Gusts 2.0 mph

Today
High -- | Low -- °F
--% Chance of Precip.
Yesterday
High -- | Low -- °F
Precip. -- in
6:46 AM 7:15 PM
Waning Gibbous, 59% visible
Pressure 29.74 in
Visibility 10.0 miles
Clouds Clear
Heat Index 81 °F
Dew Point 55 °F
Humidity 41%
Rainfall 0.00 in
Snow Depth 1 in , 0 in , 0 in
UV 0 out of 12
Pollen 6.90 out of 12
Ozone Good
PM2.5 Good
Flu Activity Not available.
METAR KMHR 150255Z 21007KT 10SM SKC 28/10 A2974

More Conditions Fewer Conditions

Pressure 29.74 in
Visibility 10.0 miles
Clouds Clear
Heat Index 81 °F
Dew Point 55 °F
Humidity 41%
Rainfall 0.00 in
Snow Depth 1 in , 0 in , 0 in
UV 0 out of 12
Pollen 6.90 out of 12
Ozone Good
PM2.5 Good
Flu Activity Not available.
METAR KMHR 150255Z 21007KT 10SM SKC 28/10 A2974

More Conditions Fewer Conditions

10-Day Weather Forecast

Almanac

Astronomy

Sep. 14, 2014 Rise Set
Actual Time 6:46 AM PDT 7:15 PM PDT
Civil Twilight 6:19 AM PDT 7:41 PM PDT
Nautical Twilight 5:47 AM PDT 8:13 PM PDT
Astronomical Twilight 5:15 AM PDT 8:45 PM PDT
Moon 11:15 PM PDT (9/14) 12:53 PM PDT (9/14)
Length of Visible Light 13h 22m
Length of Day
12h 28m
Tomorrow will be 2m 29s shorter.
Waning Gibbous, 59% of the Moon is Illuminated
Sep 15
Waning Gibbous
Sep 15
Last Quarter
Sep 24
New
Oct 1
First Quarter
Oct 8
Full

Yesterday's Extremes

State Highs State Lows

Community

WunderPhotos

Upload Photos

1,753,401 photos uploaded!

Nearby

Air Quality

  Air Quality AQ Index Pollutant
Yesterday Good
OZONE
Yesterday Good
PM2.5
Current Good
PM2.5
Current Good
OZONE
Sunday Moderate
OZONE
Monday Moderate
OZONE
Tuesday Moderate
OZONE
Wednesday Good
OZONE
Thursday Good
OZONE
Friday Good
OZONE

Snow Depth

Station Depth Elevation
Summit Meadow 1 in 9122 ft
Echo Peak 0 in 7800 ft
Cedar Pass 0 in 7100 ft
Leavitt Lake 0 in 9400 ft
Hagan's Meadow 0 in 8000 ft

Earthquake Activity

City Distance Mag. Time & Date
Covelo, California 119 miles 3.5 1:17 PM PDT
2014-09-14
Cobb, California 77 miles 2.8 11:07 AM PDT
2014-09-14
Sun Valley, Nevada 107 miles 2.7 1:02 PM PDT
2014-09-11
Minimum magnitude displayed is 2.5.

Coastal Water Temperatures

Place Temperature
No Stations Reporting

Nearby Weather Stations